WEATHER DATA

YESTERDAY
Time Temp. Dewp. Hum. Wind dir Wind speed Wind gust Bar. 1h Prec. 24h Prec.
00:06 12.5 7.4 71 326 0.8 1.1 1019.8 0.0000 0.0000
00:16 12.2 7.3 72 336 0.3 1.1 1019.9 0.0000 0.0000
00:26 12.1 7.4 73 336 0.3 1.1 1019.8 0.0000 0.0000
00:36 11.9 7.2 73 331 0.3 1.1 1019.9 0.0000 0.0000
00:46 11.7 7.2 74 334 0.3 1.1 1019.9 0.0000 0.0000
00:56 11.5 7 74 336 0.3 1.1 1019.9 0.0000 0.0000
01:07 11.4 7.1 75 330 0.3 1.1 1020 0.0000 0.0000
01:16 11.2 6.9 75 334 0.3 1.1 1020.1 0.0000 0.0000
01:26 11.1 6.8 75 327 0.3 1.1 1020.2 0.0000 0.0000
01:36 10.9 6.8 76 330 0.8 1.1 1020 0.0000 0.0000
01:47 10.7 6.6 76 336 0.3 1.1 1020 0.0000 0.0000
01:56 10.6 6.6 76 331 0.3 1.1 1020.1 0.0000 0.0000
02:06 10.4 6.5 77 334 0.8 1.1 1020.1 0.0000 0.0000
02:17 10.3 6.5 77 331 0.3 1.1 1020 0.0000 0.0000
02:27 10.2 6.4 77 332 0.8 1.1 1020 0.0000 0.0000
02:37 10 6.3 78 327 0.8 1.4 1020 0.0000 0.0000
02:47 9.9 6.2 78 327 0.3 0.8 1020 0.0000 0.0000
02:57 9.8 6.2 78 331 0.8 1.1 1019.9 0.0000 0.0000
03:07 9.7 6.1 78 335 0.3 1.1 1019.9 0.0000 0.0000
03:17 9.5 6 79 330 0.3 1.1 1020 0.0000 0.0000
03:27 9.4 5.9 79 335 0.3 1.1 1019.9 0.0000 0.0000
03:37 9.3 5.8 79 332 0.8 1.1 1019.8 0.0000 0.0000
03:47 9.2 5.8 79 333 0.3 1.1 1019.8 0.0000 0.0000
03:57 9.1 5.7 79 332 0.3 1.1 1019.8 0.0000 0.0000
04:08 9 5.7 80 327 0.3 1.1 1019.7 0.0000 0.0000
04:17 8.9 5.6 80 334 0.3 1.1 1019.8 0.0000 0.0000
04:27 8.8 5.5 80 328 0.3 1.1 1019.7 0.0000 0.0000
04:38 8.7 5.6 81 328 0.3 0.8 1019.7 0.0000 0.0000
04:48 8.7 5.6 81 330 0.8 1.1 1019.7 0.0000 0.0000
04:57 8.6 5.7 82 329 0.3 1.1 1019.7 0.0000 0.0000
05:07 8.6 5.7 82 329 0.3 0.8 1019.7 0.0000 0.0000
05:18 8.5 5.6 82 325 0.3 1.1 1019.8 0.0000 0.0000
05:28 8.5 5.6 82 331 0.3 1.1 1019.6 0.0000 0.0000
05:38 8.5 5.8 83 330 0.3 1.1 1019.7 0.0000 0.0000
05:48 8.5 5.8 83 331 0.3 1.1 1019.6 0.0000 0.0000
05:58 8.5 6 84 330 0.3 0.8 1019.6 0.0000 0.0000
06:08 8.5 6 84 329 0.3 1.1 1019.5 0.0000 0.0000
06:18 8.6 6.1 84 333 0.3 0.8 1019.4 0.0000 0.0000
06:28 8.7 6.3 85 333 0.3 0.8 1019.2 0.0000 0.0000
06:38 8.9 6.7 86 333 0.3 1.1 1019.2 0.0000 0.0000
06:48 9.1 6.9 86 315 0.3 0.8 1019.1 0.0000 0.0000
06:59 9.2 7 86 327 0.3 0.8 1018.9 0.0000 0.0000
07:09 9.4 7.3 87 0 0.8 1018.9 0.0000 0.0000
07:18 9.7 7.8 88 0 0.8 1018.8 0.0000 0.0000
07:28 10 8.3 89 0 0.8 1018.7 0.0000 0.0000
07:39 10.4 9 91 0 0.3 1018.7 0.0000 0.0000
07:49 10.8 9.6 92 0 0.3 1018.6 0.0000 0.0000
07:58 11.3 10.2 93 0 0.8 1018.6 0.0000 0.0000
08:09 12.1 10.8 92 0 0.3 1018.7 0.0000 0.0000
08:19 12.8 11.5 92 0 1.4 1018.7 0.0000 0.0000
08:29 14 12.2 89 0 0.8 1018.7 0.0000 0.0000
08:39 15 12.5 85 150 0.3 1.9 1018.7 0.0000 0.0000
08:49 15.8 12.7 82 194 0.3 1.4 1018.7 0.0000 0.0000
08:59 16.6 12.8 78 45 0.3 1.9 1018.7 0.0000 0.0000
09:09 17.1 12.8 76 315 0.3 1.1 1018.7 0.0000 0.0000
09:20 17.8 13.3 75 0.3 1.4 1018.8 0.0000 0.0000
09:29 18.3 13.4 73 164 0.3 1.4 1018.7 0.0000 0.0000
09:39 19.5 13.7 69 0.3 1.4 1018.7 0.0000 0.0000
09:49 20.2 13.7 66 45 0.3 0.8 1018.6 0.0000 0.0000
10:10 22.8 14.4 59 45 0.3 1.4 1018.5 0.0000 0.0000
10:19 23.9 14.6 56 90 0.3 1.9 1018.6 0.0000 0.0000
10:30 24.9 14.1 51 329 0.3 1.4 1018.4 0.0000 0.0000
10:40 25.9 14.7 50 26 0.3 1.1 1018.4 0.0000 0.0000
10:59 26.9 13.3 43 333 0.3 0.8 1018.3 0.0000 0.0000
11:10 27.8 13.7 42 0 0.3 1.9 1018.3 0.0000 0.0000
11:20 28 13.5 41 0.8 1.9 1018.3 0.0000 0.0000
11:30 28.6 13.7 40 146 0.3 1.4 1018.3 0.0000 0.0000
11:41 28.8 13.5 39 206 0.3 1.9 1018.3 0.0000 0.0000
11:50 29.2 13.8 39 198 0.3 1.4 1018.2 0.0000 0.0000
12:00 29.1 11.7 34 45 0.3 1.4 1018.1 0.0000 0.0000
12:10 28.3 11.8 36 270 0.3 1.1 1018.1 0.0000 0.0000
12:21 28.7 12.2 36 157 0.8 2.2 1017.9 0.0000 0.0000
12:30 29.2 13 37 170 0.3 2.2 1017.9 0.0000 0.0000
12:40 29.7 12.6 35 329 0.3 1.4 1017.9 0.0000 0.0000
13:01 30.1 12.5 34 270 0.3 2.8 1017.6 0.0000 0.0000
13:11 30 11.5 32 161 0.3 1.9 1017.5 0.0000 0.0000
13:20 30.1 11.6 32 225 0.3 1.4 1017.6 0.0000 0.0000
13:31 30.1 12.1 33 201 0.3 1.4 1017.5 0.0000 0.0000
13:51 30.7 12.1 32 183 0.8 1.9 1017.3 0.0000 0.0000
14:01 30.4 11.9 32 315 0.3 1.1 1017.2 0.0000 0.0000
14:11 30.4 11.9 32 135 0.8 2.2 1017.1 0.0000 0.0000
14:31 29.5 12.4 35 315 0.8 1.9 1017.1 0.0000 0.0000
14:51 30.2 13.5 36 323 0.8 2.2 1016.7 0.0000 0.0000
15:12 30.7 13 34 315 0.3 1.1 1016.4 0.0000 0.0000
15:22 30.6 12.5 33 281 0.8 1.9 1016.4 0.0000 0.0000
15:41 29.8 11.3 32 315 0.3 1.4 1016.2 0.0000 0.0000
15:52 29.3 12.3 35 329 0.3 1.1 1016.2 0.0000 0.0000
16:02 28.9 11.9 35 270 0.3 2.2 1016.1 0.0000 0.0000
16:12 28.8 12.3 36 315 0.3 1.1 1016 0.0000 0.0000
16:22 29.4 12.4 35 270 0.3 1.4 1015.8 0.0000 0.0000
16:32 29.5 12 34 315 0.3 1.1 1015.5 0.0000 0.0000
16:42 29.4 11.9 34 315 0.3 1.9 1015.5 0.0000 0.0000
16:52 29 12 35 0 1.1 1015.4 0.0000 0.0000
17:02 28.5 12 36 270 0.3 0.8 1015.5 0.0000 0.0000
17:12 28 12.4 38 270 0.3 0.8 1015.4 0.0000 0.0000
17:22 28 12 37 322 0.3 1.1 1015.4 0.0000 0.0000
17:32 28.3 12.6 38 329 0.8 1.4 1015.3 0.0000 0.0000
17:43 28.5 12.8 38 323 0.3 1.1 1015.3 0.0000 0.0000
17:52 28.5 12.8 38 329 0.3 1.1 1015.1 0.0000 0.0000
18:02 28.7 13 38 327 0.3 1.4 1015.1 0.0000 0.0000
18:13 28.3 12.6 38 329 0.3 1.1 1015 0.0000 0.0000
18:23 28.6 13.3 39 315 0.3 1.1 1014.8 0.0000 0.0000
18:33 28.8 13.1 38 324 0.3 1.4 1014.7 0.0000 0.0000
18:43 28.8 12.3 36 322 0.3 1.1 1014.6 0.0000 0.0000
18:53 28.6 12.5 37 315 0.3 1.1 1014.6 0.0000 0.0000
19:03 28.3 12.6 38 307 0.3 1.4 1014.5 0.0000 0.0000
19:13 28.2 12.5 38 315 0.3 1.1 1014.5 0.0000 0.0000
19:23 27.9 12.3 38 0 0.8 1014.5 0.0000 0.0000
19:33 27.7 12.1 38 303 0.3 0.8 1014.6 0.0000 0.0000
19:43 27.5 11.5 37 0 0.8 1014.7 0.0000 0.0000
19:53 27.1 12.4 40 0 0.8 1014.7 0.0000 0.0000
20:04 26.5 12.9 43 338 0.3 0.8 1014.7 0.0000 0.0000
20:13 25.7 12.9 45 335 0.3 0.8 1014.7 0.0000 0.0000
20:23 25 12.9 47 341 0.3 0.8 1014.7 0.0000 0.0000
20:34 24.2 12.8 49 346 0.3 1.1 1014.6 0.0000 0.0000
20:44 23.4 12.4 50 353 0.3 1.1 1014.7 0.0000 0.0000
20:53 22.6 12.3 52 343 0.3 1.1 1014.7 0.0000 0.0000
21:04 21.8 11.8 53 351 0.3 1.1 1014.7 0.0000 0.0000
21:14 21 11.6 55 345 0.3 0.8 1015 0.0000 0.0000
21:24 20.3 11.2 56 353 0.3 1.1 1014.8 0.0000 0.0000
21:34 19.6 11.1 58 344 0.3 1.1 1015 0.0000 0.0000
21:44 19.1 10.7 58 0 0.3 1015.2 0.0000 0.0000
21:54 18.6 10.4 59 346 0.3 0.8 1015.1 0.0000 0.0000
22:04 18 10.1 60 344 0.3 1.1 1015.2 0.0000 0.0000
22:14 17.5 9.9 61 346 0.3 1.1 1015.2 0.0000 0.0000
22:24 17 9.7 62 341 0.3 1.1 1015.1 0.0000 0.0000
22:34 16.6 9.5 63 343 0.3 0.8 1015.3 0.0000 0.0000
22:44 16.2 9.4 64 336 0.3 1.1 1015.2 0.0000 0.0000
22:55 15.8 9.2 65 338 0.3 1.1 1015 0.0000 0.0000
23:04 15.4 9.1 66 336 0.3 1.1 1015 0.0000 0.0000
23:14 15.1 9 67 335 0.3 1.1 1015 0.0000 0.0000
23:24 14.8 9 68 336 0.3 1.1 1014.8 0.0000 0.0000
23:35 14.8 9.2 69 0 0.8 1014.8 0.0000 0.0000
23:45 15 9.4 69 303 0.3 1.1 1015 0.0000 0.0000
23:54 15.3 9.2 67 315 0.3 1.1 1015.2 0.0000 0.0000

DAY STATISTIC

2018-07-20
TEMPERATURE
AVERAGE
19.2
HIGH
30.7
13:51
LOW
8.5
05:18
PRESSURE
AVERAGE
1017.5
HIGH
1020.2
01:26
LOW
1014.5
19:03
DEWPOINT
AVERAGE
10.1
HIGH
14.7
10:40
LOW
5.5
04:27
HUMIDITY
AVERAGE
60
HIGH
93
07:58
LOW
32
13:11
WIND SPEED
AVERAGE
0.3
HIGH
0.8
00:06
WIND GUST
AVERAGE
1.2
HIGH
2.8
13:01
WIND DIRECTION
PREVAILING
NW
55.6%
N
11.9
NE
3.7
E
0.7
SE
3.0
S
5.2
SW
1.5
W
5.2
NW
55.6
PRECIPITATION
RAIN HOUR
0.0
RAIN DAY
0.0
TEMPERATURE (°C)
LOW
8.5
HIGH
30.7
AVERAGE
19.2
PRESSURE (hpa)
LOW
1014.5
HIGH
1020.2
AVERAGE
1017.5
DEVICE